sensor_id;sensor_type;location;lat;lon;timestamp;P1;durP1;ratioP1;P2;durP2;ratioP2
13329;SDS011;6734;48.638;8.896;2022-11-20T00:00:42;8.07;;;5.80;;
13329;SDS011;6734;48.638;8.896;2022-11-20T00:03:07;7.90;;;5.93;;
13329;SDS011;6734;48.638;8.896;2022-11-20T00:05:33;9.33;;;5.60;;
13329;SDS011;6734;48.638;8.896;2022-11-20T00:07:58;8.17;;;6.07;;
13329;SDS011;6734;48.638;8.896;2022-11-20T00:10:24;8.47;;;5.00;;
13329;SDS011;6734;48.638;8.896;2022-11-20T00:12:49;6.13;;;4.70;;
13329;SDS011;6734;48.638;8.896;2022-11-20T00:15:15;8.53;;;5.40;;
13329;SDS011;6734;48.638;8.896;2022-11-20T00:17:41;8.57;;;5.27;;
13329;SDS011;6734;48.638;8.896;2022-11-20T00:20:06;7.20;;;5.60;;
13329;SDS011;6734;48.638;8.896;2022-11-20T00:22:32;8.43;;;5.00;;
13329;SDS011;6734;48.638;8.896;2022-11-20T00:24:58;7.67;;;5.20;;
13329;SDS011;6734;48.638;8.896;2022-11-20T00:27:24;10.33;;;5.67;;
13329;SDS011;6734;48.638;8.896;2022-11-20T00:29:49;8.17;;;5.40;;
13329;SDS011;6734;48.638;8.896;2022-11-20T00:32:15;7.90;;;5.13;;
13329;SDS011;6734;48.638;8.896;2022-11-20T00:34:41;7.00;;;4.87;;
13329;SDS011;6734;48.638;8.896;2022-11-20T00:37:07;8.10;;;5.53;;
13329;SDS011;6734;48.638;8.896;2022-11-20T00:39:32;8.87;;;5.30;;
13329;SDS011;6734;48.638;8.896;2022-11-20T00:41:58;7.50;;;5.37;;
13329;SDS011;6734;48.638;8.896;2022-11-20T00:44:23;8.67;;;5.57;;
13329;SDS011;6734;48.638;8.896;2022-11-20T00:46:49;7.57;;;5.27;;
13329;SDS011;6734;48.638;8.896;2022-11-20T00:49:15;12.53;;;5.53;;
13329;SDS011;6734;48.638;8.896;2022-11-20T00:51:41;9.47;;;6.10;;
13329;SDS011;6734;48.638;8.896;2022-11-20T00:54:06;7.17;;;4.90;;
13329;SDS011;6734;48.638;8.896;2022-11-20T00:56:32;7.77;;;4.90;;
13329;SDS011;6734;48.638;8.896;2022-11-20T00:58:59;9.97;;;4.97;;
13329;SDS011;6734;48.638;8.896;2022-11-20T01:01:26;5.87;;;4.40;;
13329;SDS011;6734;48.638;8.896;2022-11-20T01:03:54;5.83;;;4.47;;
13329;SDS011;6734;48.638;8.896;2022-11-20T01:06:23;7.90;;;4.53;;
13329;SDS011;6734;48.638;8.896;2022-11-20T01:08:50;8.10;;;4.93;;
13329;SDS011;6734;48.638;8.896;2022-11-20T01:11:18;8.67;;;5.20;;
13329;SDS011;6734;48.638;8.896;2022-11-20T01:13:45;11.23;;;5.53;;
13329;SDS011;6734;48.638;8.896;2022-11-20T01:16:16;8.27;;;4.73;;
13329;SDS011;6734;48.638;8.896;2022-11-20T01:18:45;8.57;;;5.50;;
13329;SDS011;6734;48.638;8.896;2022-11-20T01:21:13;8.90;;;5.90;;
13329;SDS011;6734;48.638;8.896;2022-11-20T01:23:41;9.57;;;5.73;;
13329;SDS011;6734;48.638;8.896;2022-11-20T01:26:09;8.30;;;6.07;;
13329;SDS011;6734;48.638;8.896;2022-11-20T01:28:36;9.83;;;6.20;;
13329;SDS011;6734;48.638;8.896;2022-11-20T01:31:10;8.50;;;6.20;;
13329;SDS011;6734;48.638;8.896;2022-11-20T01:33:38;9.47;;;5.93;;
13329;SDS011;6734;48.638;8.896;2022-11-20T01:36:05;9.67;;;5.87;;
13329;SDS011;6734;48.638;8.896;2022-11-20T01:38:31;8.37;;;5.60;;
13329;SDS011;6734;48.638;8.896;2022-11-20T01:40:57;8.27;;;6.03;;
13329;SDS011;6734;48.638;8.896;2022-11-20T01:43:23;8.03;;;5.93;;
13329;SDS011;6734;48.638;8.896;2022-11-20T01:48:16;12.90;;;7.80;;
13329;SDS011;6734;48.638;8.896;2022-11-20T01:50:44;8.03;;;5.83;;
13329;SDS011;6734;48.638;8.896;2022-11-20T01:53:12;8.43;;;5.60;;
13329;SDS011;6734;48.638;8.896;2022-11-20T01:55:41;9.37;;;5.77;;
13329;SDS011;6734;48.638;8.896;2022-11-20T01:58:07;8.37;;;4.93;;
13329;SDS011;6734;48.638;8.896;2022-11-20T02:00:33;8.77;;;5.90;;
13329;SDS011;6734;48.638;8.896;2022-11-20T02:03:00;10.10;;;5.20;;
13329;SDS011;6734;48.638;8.896;2022-11-20T02:08:15;8.60;;;5.53;;
13329;SDS011;6734;48.638;8.896;2022-11-20T02:10:41;7.07;;;4.90;;
13329;SDS011;6734;48.638;8.896;2022-11-20T02:13:07;8.93;;;5.47;;
13329;SDS011;6734;48.638;8.896;2022-11-20T02:15:52;7.23;;;5.37;;
13329;SDS011;6734;48.638;8.896;2022-11-20T02:18:18;9.03;;;6.13;;
13329;SDS011;6734;48.638;8.896;2022-11-20T02:20:45;8.40;;;6.00;;
13329;SDS011;6734;48.638;8.896;2022-11-20T02:23:13;9.50;;;5.80;;
13329;SDS011;6734;48.638;8.896;2022-11-20T02:25:47;8.43;;;5.80;;
13329;SDS011;6734;48.638;8.896;2022-11-20T02:28:15;8.70;;;5.67;;
13329;SDS011;6734;48.638;8.896;2022-11-20T02:30:42;8.57;;;6.57;;
13329;SDS011;6734;48.638;8.896;2022-11-20T02:33:08;11.67;;;7.80;;
13329;SDS011;6734;48.638;8.896;2022-11-20T02:38:00;8.67;;;6.70;;
13329;SDS011;6734;48.638;8.896;2022-11-20T02:40:27;12.20;;;7.03;;
13329;SDS011;6734;48.638;8.896;2022-11-20T02:42:56;9.47;;;6.10;;
13329;SDS011;6734;48.638;8.896;2022-11-20T02:45:22;11.03;;;7.47;;
13329;SDS011;6734;48.638;8.896;2022-11-20T02:47:49;10.30;;;6.40;;
13329;SDS011;6734;48.638;8.896;2022-11-20T02:50:15;12.20;;;7.20;;
13329;SDS011;6734;48.638;8.896;2022-11-20T02:52:41;11.33;;;6.90;;
13329;SDS011;6734;48.638;8.896;2022-11-20T02:55:07;11.60;;;7.60;;
13329;SDS011;6734;48.638;8.896;2022-11-20T02:57:32;15.47;;;8.13;;
13329;SDS011;6734;48.638;8.896;2022-11-20T02:59:58;11.43;;;7.77;;
13329;SDS011;6734;48.638;8.896;2022-11-20T03:02:24;11.97;;;7.80;;
13329;SDS011;6734;48.638;8.896;2022-11-20T03:04:50;14.10;;;7.20;;
13329;SDS011;6734;48.638;8.896;2022-11-20T03:07:15;13.87;;;7.93;;
13329;SDS011;6734;48.638;8.896;2022-11-20T03:09:41;13.93;;;8.53;;
13329;SDS011;6734;48.638;8.896;2022-11-20T03:12:06;12.43;;;7.70;;
13329;SDS011;6734;48.638;8.896;2022-11-20T03:14:32;15.63;;;8.53;;
13329;SDS011;6734;48.638;8.896;2022-11-20T03:16:58;12.97;;;7.87;;
13329;SDS011;6734;48.638;8.896;2022-11-20T03:19:23;15.90;;;8.00;;
13329;SDS011;6734;48.638;8.896;2022-11-20T03:21:49;14.33;;;8.63;;
13329;SDS011;6734;48.638;8.896;2022-11-20T03:24:15;14.40;;;8.53;;
13329;SDS011;6734;48.638;8.896;2022-11-20T03:26:41;12.60;;;8.27;;
13329;SDS011;6734;48.638;8.896;2022-11-20T03:29:07;10.20;;;7.67;;
13329;SDS011;6734;48.638;8.896;2022-11-20T03:31:37;14.63;;;8.57;;
13329;SDS011;6734;48.638;8.896;2022-11-20T03:34:08;12.40;;;8.40;;
13329;SDS011;6734;48.638;8.896;2022-11-20T03:36:34;12.37;;;7.83;;
13329;SDS011;6734;48.638;8.896;2022-11-20T03:39:02;14.67;;;7.70;;
13329;SDS011;6734;48.638;8.896;2022-11-20T03:41:29;11.87;;;7.90;;
13329;SDS011;6734;48.638;8.896;2022-11-20T03:43:56;11.70;;;8.07;;
13329;SDS011;6734;48.638;8.896;2022-11-20T03:46:24;14.13;;;7.83;;
13329;SDS011;6734;48.638;8.896;2022-11-20T03:48:50;11.57;;;7.13;;
13329;SDS011;6734;48.638;8.896;2022-11-20T03:51:17;12.20;;;7.70;;
13329;SDS011;6734;48.638;8.896;2022-11-20T03:53:45;11.57;;;7.40;;
13329;SDS011;6734;48.638;8.896;2022-11-20T03:56:13;11.53;;;7.30;;
13329;SDS011;6734;48.638;8.896;2022-11-20T03:58:40;11.23;;;7.70;;
13329;SDS011;6734;48.638;8.896;2022-11-20T04:01:06;13.33;;;8.13;;
13329;SDS011;6734;48.638;8.896;2022-11-20T04:03:32;11.27;;;7.80;;
13329;SDS011;6734;48.638;8.896;2022-11-20T04:06:05;13.80;;;8.00;;
13329;SDS011;6734;48.638;8.896;2022-11-20T04:08:32;10.10;;;7.33;;
13329;SDS011;6734;48.638;8.896;2022-11-20T04:13:55;9.87;;;6.33;;
13329;SDS011;6734;48.638;8.896;2022-11-20T04:16:22;12.97;;;7.47;;
13329;SDS011;6734;48.638;8.896;2022-11-20T04:18:53;9.93;;;7.17;;
13329;SDS011;6734;48.638;8.896;2022-11-20T04:21:20;11.00;;;6.80;;
13329;SDS011;6734;48.638;8.896;2022-11-20T04:23:45;12.43;;;7.40;;
13329;SDS011;6734;48.638;8.896;2022-11-20T04:26:11;8.40;;;6.47;;
13329;SDS011;6734;48.638;8.896;2022-11-20T04:28:37;10.20;;;6.63;;
13329;SDS011;6734;48.638;8.896;2022-11-20T04:31:11;9.30;;;6.83;;
13329;SDS011;6734;48.638;8.896;2022-11-20T04:33:37;9.17;;;6.47;;
13329;SDS011;6734;48.638;8.896;2022-11-20T04:36:05;10.90;;;6.57;;
13329;SDS011;6734;48.638;8.896;2022-11-20T04:38:32;11.03;;;7.57;;
13329;SDS011;6734;48.638;8.896;2022-11-20T04:41:03;9.87;;;6.50;;
13329;SDS011;6734;48.638;8.896;2022-11-20T04:43:30;10.00;;;6.50;;
13329;SDS011;6734;48.638;8.896;2022-11-20T04:45:58;10.20;;;5.93;;
13329;SDS011;6734;48.638;8.896;2022-11-20T04:48:24;9.80;;;7.20;;
13329;SDS011;6734;48.638;8.896;2022-11-20T04:50:51;11.10;;;7.03;;
13329;SDS011;6734;48.638;8.896;2022-11-20T04:53:17;11.30;;;6.50;;
13329;SDS011;6734;48.638;8.896;2022-11-20T04:55:44;13.03;;;7.77;;
13329;SDS011;6734;48.638;8.896;2022-11-20T04:58:10;9.00;;;5.67;;
13329;SDS011;6734;48.638;8.896;2022-11-20T05:00:36;8.83;;;5.80;;
13329;SDS011;6734;48.638;8.896;2022-11-20T05:03:02;8.33;;;5.53;;
13329;SDS011;6734;48.638;8.896;2022-11-20T05:05:27;10.47;;;5.60;;
13329;SDS011;6734;48.638;8.896;2022-11-20T05:07:55;9.13;;;6.10;;
13329;SDS011;6734;48.638;8.896;2022-11-20T05:10:22;7.83;;;5.77;;
13329;SDS011;6734;48.638;8.896;2022-11-20T05:12:48;9.13;;;6.80;;
13329;SDS011;6734;48.638;8.896;2022-11-20T05:15:14;10.13;;;5.83;;
13329;SDS011;6734;48.638;8.896;2022-11-20T05:17:39;8.53;;;5.80;;
13329;SDS011;6734;48.638;8.896;2022-11-20T05:20:05;8.47;;;5.87;;
13329;SDS011;6734;48.638;8.896;2022-11-20T05:22:31;8.67;;;5.77;;
13329;SDS011;6734;48.638;8.896;2022-11-20T05:24:57;8.90;;;5.43;;
13329;SDS011;6734;48.638;8.896;2022-11-20T05:27:23;6.70;;;5.13;;
13329;SDS011;6734;48.638;8.896;2022-11-20T05:29:49;7.97;;;5.43;;
13329;SDS011;6734;48.638;8.896;2022-11-20T05:32:15;8.97;;;6.13;;
13329;SDS011;6734;48.638;8.896;2022-11-20T05:34:40;5.73;;;4.60;;
13329;SDS011;6734;48.638;8.896;2022-11-20T05:37:06;6.37;;;4.27;;
13329;SDS011;6734;48.638;8.896;2022-11-20T05:39:32;5.67;;;3.60;;
13329;SDS011;6734;48.638;8.896;2022-11-20T05:41:57;5.77;;;4.27;;
13329;SDS011;6734;48.638;8.896;2022-11-20T05:44:42;7.80;;;4.67;;
13329;SDS011;6734;48.638;8.896;2022-11-20T05:47:08;6.27;;;4.60;;
13329;SDS011;6734;48.638;8.896;2022-11-20T05:49:33;6.70;;;5.07;;
13329;SDS011;6734;48.638;8.896;2022-11-20T05:51:59;6.90;;;4.83;;
13329;SDS011;6734;48.638;8.896;2022-11-20T05:54:25;6.10;;;4.73;;
13329;SDS011;6734;48.638;8.896;2022-11-20T05:56:51;6.93;;;4.97;;
13329;SDS011;6734;48.638;8.896;2022-11-20T05:59:17;6.83;;;4.20;;
13329;SDS011;6734;48.638;8.896;2022-11-20T06:01:42;6.20;;;4.80;;
13329;SDS011;6734;48.638;8.896;2022-11-20T06:04:08;4.63;;;4.13;;
13329;SDS011;6734;48.638;8.896;2022-11-20T06:06:33;5.43;;;3.70;;
13329;SDS011;6734;48.638;8.896;2022-11-20T06:08:59;6.47;;;4.00;;
13329;SDS011;6734;48.638;8.896;2022-11-20T06:11:25;7.20;;;4.53;;
13329;SDS011;6734;48.638;8.896;2022-11-20T06:13:50;6.57;;;4.10;;
13329;SDS011;6734;48.638;8.896;2022-11-20T06:16:18;6.90;;;4.53;;
13329;SDS011;6734;48.638;8.896;2022-11-20T06:18:44;5.20;;;3.93;;
13329;SDS011;6734;48.638;8.896;2022-11-20T06:21:13;5.87;;;3.80;;
13329;SDS011;6734;48.638;8.896;2022-11-20T06:23:39;4.90;;;3.80;;
13329;SDS011;6734;48.638;8.896;2022-11-20T06:26:06;6.03;;;3.97;;
13329;SDS011;6734;48.638;8.896;2022-11-20T06:28:36;5.53;;;3.97;;
13329;SDS011;6734;48.638;8.896;2022-11-20T06:31:02;5.23;;;3.90;;
13329;SDS011;6734;48.638;8.896;2022-11-20T06:33:28;5.23;;;4.30;;
13329;SDS011;6734;48.638;8.896;2022-11-20T06:35:58;4.57;;;3.67;;
13329;SDS011;6734;48.638;8.896;2022-11-20T06:38:24;5.80;;;4.50;;
13329;SDS011;6734;48.638;8.896;2022-11-20T06:40:51;5.93;;;4.63;;
13329;SDS011;6734;48.638;8.896;2022-11-20T06:43:16;6.37;;;4.10;;
13329;SDS011;6734;48.638;8.896;2022-11-20T06:45:42;4.20;;;3.70;;
13329;SDS011;6734;48.638;8.896;2022-11-20T06:48:08;4.63;;;3.93;;
13329;SDS011;6734;48.638;8.896;2022-11-20T06:50:34;5.63;;;4.10;;
13329;SDS011;6734;48.638;8.896;2022-11-20T06:53:01;4.30;;;3.80;;
13329;SDS011;6734;48.638;8.896;2022-11-20T06:55:28;6.13;;;4.30;;
13329;SDS011;6734;48.638;8.896;2022-11-20T06:57:54;6.87;;;3.80;;
13329;SDS011;6734;48.638;8.896;2022-11-20T07:00:20;14.87;;;8.83;;
13329;SDS011;6734;48.638;8.896;2022-11-20T07:02:46;7.30;;;5.13;;
13329;SDS011;6734;48.638;8.896;2022-11-20T07:05:11;9.17;;;5.70;;
13329;SDS011;6734;48.638;8.896;2022-11-20T07:07:37;5.17;;;4.40;;
13329;SDS011;6734;48.638;8.896;2022-11-20T07:10:03;7.57;;;5.33;;
13329;SDS011;6734;48.638;8.896;2022-11-20T07:12:29;8.80;;;5.63;;
13329;SDS011;6734;48.638;8.896;2022-11-20T07:14:55;7.17;;;4.97;;
13329;SDS011;6734;48.638;8.896;2022-11-20T07:17:21;7.73;;;5.97;;
13329;SDS011;6734;48.638;8.896;2022-11-20T07:19:47;8.27;;;4.90;;
13329;SDS011;6734;48.638;8.896;2022-11-20T07:22:12;5.10;;;4.20;;
13329;SDS011;6734;48.638;8.896;2022-11-20T07:24:38;5.00;;;4.23;;
13329;SDS011;6734;48.638;8.896;2022-11-20T07:27:04;7.43;;;4.90;;
13329;SDS011;6734;48.638;8.896;2022-11-20T07:29:30;5.43;;;4.07;;
13329;SDS011;6734;48.638;8.896;2022-11-20T07:31:55;6.27;;;4.67;;
13329;SDS011;6734;48.638;8.896;2022-11-20T07:34:21;6.27;;;4.53;;
13329;SDS011;6734;48.638;8.896;2022-11-20T07:36:47;9.83;;;6.77;;
13329;SDS011;6734;48.638;8.896;2022-11-20T07:39:13;7.90;;;5.73;;
13329;SDS011;6734;48.638;8.896;2022-11-20T07:41:38;6.47;;;3.73;;
13329;SDS011;6734;48.638;8.896;2022-11-20T07:44:04;6.27;;;4.30;;
13329;SDS011;6734;48.638;8.896;2022-11-20T07:46:31;4.30;;;3.33;;
13329;SDS011;6734;48.638;8.896;2022-11-20T07:48:57;4.33;;;3.50;;
13329;SDS011;6734;48.638;8.896;2022-11-20T07:51:22;4.73;;;3.47;;
13329;SDS011;6734;48.638;8.896;2022-11-20T07:53:50;5.70;;;3.77;;
13329;SDS011;6734;48.638;8.896;2022-11-20T07:56:18;4.93;;;3.70;;
13329;SDS011;6734;48.638;8.896;2022-11-20T07:58:44;4.83;;;3.60;;
13329;SDS011;6734;48.638;8.896;2022-11-20T08:01:10;5.80;;;4.33;;
13329;SDS011;6734;48.638;8.896;2022-11-20T08:03:36;4.90;;;3.73;;
13329;SDS011;6734;48.638;8.896;2022-11-20T08:06:05;4.07;;;3.23;;
13329;SDS011;6734;48.638;8.896;2022-11-20T08:08:31;9.57;;;6.43;;
13329;SDS011;6734;48.638;8.896;2022-11-20T08:10:57;10.03;;;6.47;;
13329;SDS011;6734;48.638;8.896;2022-11-20T08:13:41;3.73;;;3.07;;
13329;SDS011;6734;48.638;8.896;2022-11-20T08:16:25;4.60;;;3.90;;
13329;SDS011;6734;48.638;8.896;2022-11-20T08:18:50;4.27;;;3.13;;
13329;SDS011;6734;48.638;8.896;2022-11-20T08:21:16;6.17;;;4.87;;
13329;SDS011;6734;48.638;8.896;2022-11-20T08:23:41;3.63;;;2.57;;
13329;SDS011;6734;48.638;8.896;2022-11-20T08:26:07;4.13;;;2.57;;
13329;SDS011;6734;48.638;8.896;2022-11-20T08:28:33;3.47;;;2.10;;
13329;SDS011;6734;48.638;8.896;2022-11-20T08:31:00;3.47;;;2.10;;
13329;SDS011;6734;48.638;8.896;2022-11-20T08:33:26;2.13;;;1.60;;
13329;SDS011;6734;48.638;8.896;2022-11-20T08:35:51;1.27;;;1.17;;
13329;SDS011;6734;48.638;8.896;2022-11-20T08:38:17;2.20;;;1.80;;
13329;SDS011;6734;48.638;8.896;2022-11-20T08:40:43;4.43;;;2.00;;
13329;SDS011;6734;48.638;8.896;2022-11-20T08:43:31;2.97;;;1.83;;
13329;SDS011;6734;48.638;8.896;2022-11-20T08:45:57;3.73;;;2.53;;
13329;SDS011;6734;48.638;8.896;2022-11-20T08:48:23;4.43;;;2.60;;
13329;SDS011;6734;48.638;8.896;2022-11-20T08:50:48;2.07;;;1.80;;
13329;SDS011;6734;48.638;8.896;2022-11-20T08:53:14;1.60;;;1.37;;
13329;SDS011;6734;48.638;8.896;2022-11-20T08:55:39;1.63;;;1.40;;
13329;SDS011;6734;48.638;8.896;2022-11-20T08:58:05;2.13;;;1.70;;
13329;SDS011;6734;48.638;8.896;2022-11-20T09:00:32;2.60;;;2.30;;
13329;SDS011;6734;48.638;8.896;2022-11-20T09:02:58;1.73;;;1.40;;
13329;SDS011;6734;48.638;8.896;2022-11-20T09:05:25;1.70;;;1.40;;
13329;SDS011;6734;48.638;8.896;2022-11-20T09:07:51;1.33;;;1.20;;
13329;SDS011;6734;48.638;8.896;2022-11-20T09:10:20;2.10;;;1.73;;
13329;SDS011;6734;48.638;8.896;2022-11-20T09:12:48;2.13;;;1.70;;
13329;SDS011;6734;48.638;8.896;2022-11-20T09:15:14;2.37;;;1.80;;
13329;SDS011;6734;48.638;8.896;2022-11-20T09:17:40;3.80;;;3.40;;
13329;SDS011;6734;48.638;8.896;2022-11-20T09:20:06;2.17;;;1.63;;
13329;SDS011;6734;48.638;8.896;2022-11-20T09:22:32;1.63;;;1.20;;
13329;SDS011;6734;48.638;8.896;2022-11-20T09:24:58;1.37;;;1.23;;
13329;SDS011;6734;48.638;8.896;2022-11-20T09:27:24;2.10;;;1.63;;
13329;SDS011;6734;48.638;8.896;2022-11-20T09:29:50;3.83;;;2.37;;
13329;SDS011;6734;48.638;8.896;2022-11-20T09:32:16;1.10;;;1.00;;
13329;SDS011;6734;48.638;8.896;2022-11-20T09:34:42;1.20;;;1.10;;
13329;SDS011;6734;48.638;8.896;2022-11-20T09:37:07;1.00;;;0.80;;
13329;SDS011;6734;48.638;8.896;2022-11-20T09:39:33;1.90;;;0.90;;
13329;SDS011;6734;48.638;8.896;2022-11-20T09:50:15;1.30;;;1.20;;
13329;SDS011;6734;48.638;8.896;2022-11-20T09:55:20;0.93;;;0.90;;
13329;SDS011;6734;48.638;8.896;2022-11-20T09:57:46;1.00;;;0.90;;
13329;SDS011;6734;48.638;8.896;2022-11-20T10:00:14;5.60;;;3.20;;
13329;SDS011;6734;48.638;8.896;2022-11-20T10:05:27;6.67;;;3.60;;
13329;SDS011;6734;48.638;8.896;2022-11-20T10:15:38;1.57;;;1.47;;
13329;SDS011;6734;48.638;8.896;2022-11-20T10:26:17;2.73;;;1.43;;
13329;SDS011;6734;48.638;8.896;2022-11-20T10:29:15;4.63;;;2.37;;
13329;SDS011;6734;48.638;8.896;2022-11-20T10:31:43;3.13;;;2.23;;
13329;SDS011;6734;48.638;8.896;2022-11-20T10:34:18;3.27;;;2.20;;
13329;SDS011;6734;48.638;8.896;2022-11-20T10:36:56;1.50;;;1.30;;
13329;SDS011;6734;48.638;8.896;2022-11-20T10:42:13;2.10;;;1.83;;
13329;SDS011;6734;48.638;8.896;2022-11-20T10:44:47;3.93;;;2.03;;
13329;SDS011;6734;48.638;8.896;2022-11-20T10:47:27;3.93;;;2.20;;
13329;SDS011;6734;48.638;8.896;2022-11-20T10:49:56;2.10;;;1.90;;
13329;SDS011;6734;48.638;8.896;2022-11-20T11:00:21;2.40;;;1.40;;
13329;SDS011;6734;48.638;8.896;2022-11-20T11:02:48;1.80;;;1.50;;
13329;SDS011;6734;48.638;8.896;2022-11-20T11:08:12;2.63;;;1.30;;
13329;SDS011;6734;48.638;8.896;2022-11-20T11:10:54;3.10;;;1.90;;
13329;SDS011;6734;48.638;8.896;2022-11-20T11:13:22;2.90;;;1.93;;
13329;SDS011;6734;48.638;8.896;2022-11-20T11:15:48;1.73;;;1.30;;
13329;SDS011;6734;48.638;8.896;2022-11-20T11:18:31;2.87;;;1.90;;
13329;SDS011;6734;48.638;8.896;2022-11-20T11:20:59;4.30;;;1.70;;
13329;SDS011;6734;48.638;8.896;2022-11-20T11:23:29;4.93;;;1.67;;
13329;SDS011;6734;48.638;8.896;2022-11-20T11:25:57;2.83;;;1.80;;
13329;SDS011;6734;48.638;8.896;2022-11-20T11:28:23;2.33;;;1.73;;
13329;SDS011;6734;48.638;8.896;2022-11-20T11:30:52;2.90;;;1.90;;
13329;SDS011;6734;48.638;8.896;2022-11-20T11:33:20;2.30;;;1.90;;
13329;SDS011;6734;48.638;8.896;2022-11-20T11:35:57;2.60;;;1.67;;
13329;SDS011;6734;48.638;8.896;2022-11-20T11:41:03;2.50;;;0.90;;
13329;SDS011;6734;48.638;8.896;2022-11-20T11:43:32;3.37;;;1.83;;
13329;SDS011;6734;48.638;8.896;2022-11-20T12:00:05;4.47;;;1.40;;
13329;SDS011;6734;48.638;8.896;2022-11-20T12:13:17;2.13;;;1.60;;
13329;SDS011;6734;48.638;8.896;2022-11-20T12:15:52;2.43;;;1.40;;
13329;SDS011;6734;48.638;8.896;2022-11-20T12:18:20;3.13;;;1.27;;
13329;SDS011;6734;48.638;8.896;2022-11-20T12:21:00;4.17;;;1.50;;
13329;SDS011;6734;48.638;8.896;2022-11-20T12:34:23;2.63;;;1.50;;
13329;SDS011;6734;48.638;8.896;2022-11-20T12:39:42;1.63;;;1.20;;
13329;SDS011;6734;48.638;8.896;2022-11-20T12:53:05;1.63;;;0.90;;
13329;SDS011;6734;48.638;8.896;2022-11-20T13:00:50;0.80;;;0.80;;
13329;SDS011;6734;48.638;8.896;2022-11-20T13:07:03;2.93;;;1.13;;
13329;SDS011;6734;48.638;8.896;2022-11-20T13:09:33;2.17;;;1.73;;
13329;SDS011;6734;48.638;8.896;2022-11-20T13:12:07;2.57;;;1.07;;
13329;SDS011;6734;48.638;8.896;2022-11-20T13:14:36;3.40;;;0.90;;
13329;SDS011;6734;48.638;8.896;2022-11-20T13:17:28;2.00;;;1.00;;
13329;SDS011;6734;48.638;8.896;2022-11-20T13:19:56;1.97;;;1.30;;
13329;SDS011;6734;48.638;8.896;2022-11-20T13:22:27;2.47;;;1.23;;
13329;SDS011;6734;48.638;8.896;2022-11-20T13:24:54;1.40;;;1.30;;
13329;SDS011;6734;48.638;8.896;2022-11-20T13:27:23;3.40;;;1.40;;
13329;SDS011;6734;48.638;8.896;2022-11-20T13:32:57;2.47;;;1.50;;
13329;SDS011;6734;48.638;8.896;2022-11-20T13:35:36;2.63;;;1.50;;
13329;SDS011;6734;48.638;8.896;2022-11-20T13:38:09;3.27;;;1.47;;
13329;SDS011;6734;48.638;8.896;2022-11-20T13:40:51;4.97;;;2.80;;
13329;SDS011;6734;48.638;8.896;2022-11-20T13:43:22;3.97;;;2.00;;
13329;SDS011;6734;48.638;8.896;2022-11-20T13:45:55;20.73;;;8.73;;
13329;SDS011;6734;48.638;8.896;2022-11-20T13:48:22;6.50;;;3.67;;
13329;SDS011;6734;48.638;8.896;2022-11-20T13:56:04;2.83;;;2.03;;
13329;SDS011;6734;48.638;8.896;2022-11-20T13:58:44;3.27;;;1.67;;
13329;SDS011;6734;48.638;8.896;2022-11-20T14:01:18;3.77;;;2.10;;
13329;SDS011;6734;48.638;8.896;2022-11-20T14:03:47;2.77;;;1.37;;
13329;SDS011;6734;48.638;8.896;2022-11-20T14:06:15;2.23;;;2.03;;
13329;SDS011;6734;48.638;8.896;2022-11-20T14:08:46;4.70;;;1.70;;
13329;SDS011;6734;48.638;8.896;2022-11-20T14:11:19;2.53;;;1.77;;
13329;SDS011;6734;48.638;8.896;2022-11-20T14:14:01;3.30;;;1.80;;
13329;SDS011;6734;48.638;8.896;2022-11-20T14:16:39;3.67;;;1.57;;
13329;SDS011;6734;48.638;8.896;2022-11-20T14:19:22;5.77;;;2.53;;
13329;SDS011;6734;48.638;8.896;2022-11-20T14:21:49;3.07;;;1.60;;
13329;SDS011;6734;48.638;8.896;2022-11-20T14:24:23;2.60;;;1.70;;
13329;SDS011;6734;48.638;8.896;2022-11-20T14:26:49;5.17;;;1.67;;
13329;SDS011;6734;48.638;8.896;2022-11-20T14:29:17;3.00;;;2.43;;
13329;SDS011;6734;48.638;8.896;2022-11-20T14:31:44;3.20;;;1.90;;
13329;SDS011;6734;48.638;8.896;2022-11-20T14:34:15;6.70;;;2.83;;
13329;SDS011;6734;48.638;8.896;2022-11-20T14:36:41;2.93;;;2.17;;
13329;SDS011;6734;48.638;8.896;2022-11-20T14:39:10;3.43;;;1.90;;
13329;SDS011;6734;48.638;8.896;2022-11-20T14:41:36;8.43;;;3.40;;
13329;SDS011;6734;48.638;8.896;2022-11-20T14:44:02;3.37;;;2.13;;
13329;SDS011;6734;48.638;8.896;2022-11-20T14:46:29;3.60;;;1.50;;
13329;SDS011;6734;48.638;8.896;2022-11-20T14:48:56;2.20;;;1.30;;
13329;SDS011;6734;48.638;8.896;2022-11-20T14:51:30;3.47;;;2.30;;
13329;SDS011;6734;48.638;8.896;2022-11-20T14:54:08;3.97;;;2.20;;
13329;SDS011;6734;48.638;8.896;2022-11-20T14:56:33;4.80;;;2.03;;
13329;SDS011;6734;48.638;8.896;2022-11-20T14:58:59;1.83;;;1.60;;
13329;SDS011;6734;48.638;8.896;2022-11-20T15:01:25;2.00;;;1.50;;
13329;SDS011;6734;48.638;8.896;2022-11-20T15:04:06;2.93;;;2.00;;
13329;SDS011;6734;48.638;8.896;2022-11-20T15:06:33;3.37;;;1.97;;
13329;SDS011;6734;48.638;8.896;2022-11-20T15:08:59;2.77;;;2.20;;
13329;SDS011;6734;48.638;8.896;2022-11-20T15:11:27;2.40;;;1.93;;
13329;SDS011;6734;48.638;8.896;2022-11-20T15:13:54;3.23;;;2.00;;
13329;SDS011;6734;48.638;8.896;2022-11-20T15:16:21;4.97;;;3.40;;
13329;SDS011;6734;48.638;8.896;2022-11-20T15:18:48;4.67;;;3.43;;
13329;SDS011;6734;48.638;8.896;2022-11-20T15:21:15;4.27;;;2.83;;
13329;SDS011;6734;48.638;8.896;2022-11-20T15:23:42;5.30;;;3.40;;
13329;SDS011;6734;48.638;8.896;2022-11-20T15:26:08;3.43;;;2.40;;
13329;SDS011;6734;48.638;8.896;2022-11-20T15:28:41;3.20;;;2.77;;
13329;SDS011;6734;48.638;8.896;2022-11-20T15:31:11;4.00;;;2.60;;
13329;SDS011;6734;48.638;8.896;2022-11-20T15:33:38;4.27;;;2.70;;
13329;SDS011;6734;48.638;8.896;2022-11-20T15:36:03;3.57;;;2.50;;
13329;SDS011;6734;48.638;8.896;2022-11-20T15:38:29;5.07;;;3.00;;
13329;SDS011;6734;48.638;8.896;2022-11-20T15:40:55;3.80;;;3.40;;
13329;SDS011;6734;48.638;8.896;2022-11-20T15:43:22;4.97;;;3.10;;
13329;SDS011;6734;48.638;8.896;2022-11-20T15:45:49;4.10;;;3.27;;
13329;SDS011;6734;48.638;8.896;2022-11-20T15:48:51;4.10;;;3.20;;
13329;SDS011;6734;48.638;8.896;2022-11-20T15:51:22;4.77;;;3.47;;
13329;SDS011;6734;48.638;8.896;2022-11-20T15:53:50;4.30;;;3.80;;
13329;SDS011;6734;48.638;8.896;2022-11-20T15:56:16;7.13;;;3.40;;
13329;SDS011;6734;48.638;8.896;2022-11-20T15:58:41;7.30;;;4.83;;
13329;SDS011;6734;48.638;8.896;2022-11-20T16:01:11;9.03;;;4.67;;
13329;SDS011;6734;48.638;8.896;2022-11-20T16:03:38;8.17;;;5.20;;
13329;SDS011;6734;48.638;8.896;2022-11-20T16:06:04;10.10;;;6.33;;
13329;SDS011;6734;48.638;8.896;2022-11-20T16:08:29;7.67;;;4.70;;
13329;SDS011;6734;48.638;8.896;2022-11-20T16:10:55;7.77;;;4.77;;
13329;SDS011;6734;48.638;8.896;2022-11-20T16:13:21;6.23;;;3.97;;
13329;SDS011;6734;48.638;8.896;2022-11-20T16:16:11;8.10;;;4.73;;
13329;SDS011;6734;48.638;8.896;2022-11-20T16:18:40;6.97;;;5.07;;
13329;SDS011;6734;48.638;8.896;2022-11-20T16:21:10;7.10;;;5.10;;
13329;SDS011;6734;48.638;8.896;2022-11-20T16:23:37;5.07;;;3.17;;
13329;SDS011;6734;48.638;8.896;2022-11-20T16:26:09;6.13;;;4.00;;
13329;SDS011;6734;48.638;8.896;2022-11-20T16:28:42;4.80;;;3.93;;
13329;SDS011;6734;48.638;8.896;2022-11-20T16:31:12;4.53;;;3.90;;
13329;SDS011;6734;48.638;8.896;2022-11-20T16:33:39;3.57;;;2.67;;
13329;SDS011;6734;48.638;8.896;2022-11-20T16:36:06;4.57;;;3.37;;
13329;SDS011;6734;48.638;8.896;2022-11-20T16:38:36;4.33;;;3.10;;
13329;SDS011;6734;48.638;8.896;2022-11-20T16:41:02;6.43;;;3.03;;
13329;SDS011;6734;48.638;8.896;2022-11-20T16:43:28;5.13;;;3.30;;
13329;SDS011;6734;48.638;8.896;2022-11-20T16:45:54;4.10;;;3.53;;
13329;SDS011;6734;48.638;8.896;2022-11-20T16:48:20;6.67;;;4.90;;
13329;SDS011;6734;48.638;8.896;2022-11-20T16:50:49;7.43;;;4.60;;
13329;SDS011;6734;48.638;8.896;2022-11-20T16:53:16;5.33;;;3.30;;
13329;SDS011;6734;48.638;8.896;2022-11-20T16:55:43;6.73;;;4.03;;
13329;SDS011;6734;48.638;8.896;2022-11-20T16:58:09;6.80;;;3.57;;
13329;SDS011;6734;48.638;8.896;2022-11-20T17:00:35;5.13;;;3.60;;
13329;SDS011;6734;48.638;8.896;2022-11-20T17:03:02;9.87;;;4.47;;
13329;SDS011;6734;48.638;8.896;2022-11-20T17:05:28;5.13;;;3.13;;
13329;SDS011;6734;48.638;8.896;2022-11-20T17:07:54;4.90;;;3.50;;